Time;durP1;ratioP1;P1;durP2;ratioP2;P2;SDS_P1;SDS_P2;PMS_P1;PMS_P2;Temp;Humidity;BMP_temperature;BMP_pressure;BME280_temperature;BME280_humidity;BME280_pressure;Samples;Min_cycle;Max_cycle;Signal;HPM_P1;HPM_P2
2022/07/21 00:02:00;;;;;;;;;10.33;10.00;;;;;25.96;46.04;98792.25;4908852;28;103574;-60
2022/07/21 00:04:27;;;;;;;;;11.00;8.00;;;;;25.95;45.88;98790.59;4908804;28;102291;-60
2022/07/21 00:06:55;;;;;;;;;11.67;9.67;;;;;25.96;46.14;98792.25;4901175;28;102336;-60
2022/07/21 00:09:22;;;;;;;;;10.00;8.33;;;;;25.94;45.91;98798.06;4891758;28;104438;-60
2022/07/21 00:11:49;;;;;;;;;9.00;8.00;;;;;25.94;45.96;98798.06;4910014;28;102348;-60
2022/07/21 00:14:17;;;;;;;;;9.33;9.33;;;;;25.95;46.08;98798.91;4912287;28;102340;-60
2022/07/21 00:16:44;;;;;;;;;8.67;8.67;;;;;25.94;46.02;98792.53;4908621;28;102228;-60
2022/07/21 00:19:12;;;;;;;;;9.33;9.00;;;;;25.94;46.00;98795.31;4913265;28;104080;-60
2022/07/21 00:21:39;;;;;;;;;8.67;8.67;;;;;25.94;46.07;98791.69;4919692;28;102326;-60
2022/07/21 00:24:07;;;;;;;;;8.00;7.33;;;;;25.93;46.02;98796.44;4916599;28;102637;-60
2022/07/21 00:26:34;;;;;;;;;8.00;7.33;;;;;25.94;46.07;98798.06;4920522;28;102213;-60
2022/07/21 00:29:01;;;;;;;;;8.33;8.33;;;;;25.94;45.95;98795.31;4918527;28;104221;-59
2022/07/21 00:31:29;;;;;;;;;8.33;7.67;;;;;25.93;46.02;98801.16;4913658;28;102429;-60
2022/07/21 00:33:56;;;;;;;;;8.00;7.33;;;;;25.92;46.07;98803.09;4917590;28;102360;-60
2022/07/21 00:36:23;;;;;;;;;11.00;10.00;;;;;25.93;46.09;98793.69;4911181;28;102564;-60
2022/07/21 00:38:51;;;;;;;;;9.00;9.00;;;;;25.92;46.12;98793.97;4914255;28;103330;-60
2022/07/21 00:41:18;;;;;;;;;8.00;8.00;;;;;25.91;46.01;98793.13;4912438;28;102236;-60
2022/07/21 00:43:46;;;;;;;;;11.33;9.33;;;;;25.90;46.10;98796.19;4907828;28;109120;-60
2022/07/21 00:46:13;;;;;;;;;8.67;8.67;;;;;25.88;46.21;98790.97;4918594;28;102307;-60
2022/07/21 00:48:40;;;;;;;;;10.00;10.00;;;;;25.89;46.10;98789.84;4916415;28;104238;-60
2022/07/21 00:51:07;;;;;;;;;10.67;8.67;;;;;25.87;46.14;98782.94;4914873;28;102859;-60
2022/07/21 00:53:35;;;;;;;;;10.33;10.33;;;;;25.89;46.12;98794.56;4915314;28;102163;-60
2022/07/21 00:56:02;;;;;;;;;6.67;6.67;;;;;25.89;46.12;98794.56;4922444;28;102535;-60
2022/07/21 00:58:29;;;;;;;;;8.67;8.00;;;;;25.90;46.09;98793.41;4916924;28;104162;-60
2022/07/21 01:00:56;;;;;;;;;8.00;8.00;;;;;25.89;46.14;98800.09;4914231;28;102505;-60
2022/07/21 01:03:24;;;;;;;;;7.67;7.33;;;;;25.89;46.23;98794.56;4912008;28;102256;-60
2022/07/21 01:05:51;;;;;;;;;7.33;7.00;;;;;25.86;46.15;98792.38;4906863;28;110093;-60
2022/07/21 01:08:18;;;;;;;;;5.00;5.00;;;;;25.86;46.14;98789.59;4906132;28;104299;-60
2022/07/21 01:10:46;;;;;;;;;8.33;8.33;;;;;25.85;46.25;98787.97;4913516;28;102204;-60
2022/07/21 01:13:13;;;;;;;;;8.33;8.33;;;;;25.86;46.22;98792.38;4916734;28;102115;-60
2022/07/21 01:15:40;;;;;;;;;9.33;9.00;;;;;25.84;46.21;98780.78;4914448;28;103538;-60
2022/07/21 01:18:08;;;;;;;;;8.00;7.00;;;;;25.84;46.14;98786.31;4917219;28;109047;-60
2022/07/21 01:20:35;;;;;;;;;8.67;8.33;;;;;25.81;46.32;98784.94;4913144;28;102237;-60
2022/07/21 01:23:03;;;;;;;;;7.00;6.00;;;;;25.82;46.00;98788.53;4913278;28;102548;-60
2022/07/21 01:25:30;;;;;;;;;11.00;10.33;;;;;25.80;46.28;98788.03;4915386;28;102200;-60
2022/07/21 01:27:57;;;;;;;;;9.00;9.00;;;;;25.79;46.30;98795.50;4916001;28;104354;-60
2022/07/21 01:30:25;;;;;;;;;10.67;10.33;;;;;25.81;46.37;98781.34;4913621;28;102248;-60
2022/07/21 01:32:52;;;;;;;;;10.67;10.00;;;;;25.78;46.34;98788.31;4916650;28;103194;-60
2022/07/21 01:35:19;;;;;;;;;9.00;8.00;;;;;25.78;46.41;98785.53;4915114;28;102883;-60
2022/07/21 01:37:47;;;;;;;;;8.33;8.33;;;;;25.79;46.34;98781.66;4912881;28;103526;-60
2022/07/21 01:43:01;;;;;;;;;11.00;10.33;;;;;25.77;46.34;98768.09;4914483;28;102377;-61
2022/07/21 01:45:31;;;;;;;;;7.00;7.00;;;;;25.77;46.36;98770.03;4913625;28;111158;-60
2022/07/21 01:47:58;;;;;;;;;9.00;8.00;;;;;25.77;46.36;98770.03;4911320;28;104054;-60
2022/07/21 01:50:28;;;;;;;;;9.00;9.00;;;;;25.76;46.43;98769.19;4910932;28;102421;-61
2022/07/21 01:52:56;;;;;;;;;10.00;9.33;;;;;25.76;46.56;98773.91;4911446;28;102600;-60
2022/07/21 01:55:23;;;;;;;;;10.00;8.67;;;;;25.76;46.50;98773.91;4909295;28;102253;-60
2022/07/21 01:57:51;;;;;;;;;10.00;8.00;;;;;25.73;46.61;98775.34;4938077;28;104456;-60
2022/07/21 02:00:18;;;;;;;;;9.33;9.00;;;;;25.74;46.61;98771.47;4914908;28;102331;-60
2022/07/21 02:02:45;;;;;;;;;8.33;7.33;;;;;25.73;46.53;98768.97;4916111;28;103110;-60
2022/07/21 02:05:12;;;;;;;;;8.00;8.00;;;;;25.75;46.55;98775.06;4919062;28;102400;-60
2022/07/21 02:07:39;;;;;;;;;11.33;10.67;;;;;25.74;46.52;98779.78;4946787;28;104140;-60
2022/07/21 02:10:07;;;;;;;;;8.00;8.00;;;;;25.73;46.50;98772.56;4915067;28;103873;-60
2022/07/21 02:12:34;;;;;;;;;8.67;8.67;;;;;25.73;46.52;98769.81;4911316;28;102966;-60
2022/07/21 02:15:01;;;;;;;;;9.33;9.00;;;;;25.72;46.50;98772.88;4918311;28;102397;-60
2022/07/21 02:17:28;;;;;;;;;6.67;6.33;;;;;25.71;46.64;98768.47;4915585;28;104304;-60
2022/07/21 02:19:56;;;;;;;;;8.67;8.33;;;;;25.69;46.53;98763.22;4915985;28;102285;-60
2022/07/21 02:22:23;;;;;;;;;10.33;8.67;;;;;25.69;46.59;98752.13;4916659;28;102278;-60
2022/07/21 02:24:50;;;;;;;;;8.67;8.33;;;;;25.68;46.54;98761.56;4916570;28;102439;-60
2022/07/21 02:27:17;;;;;;;;;8.33;7.33;;;;;25.68;46.58;98756.00;4918845;28;104228;-60
2022/07/21 02:29:44;;;;;;;;;7.00;7.00;;;;;25.67;46.64;98748.81;4918714;28;102959;-60
2022/07/21 02:32:11;;;;;;;;;8.67;8.67;;;;;25.65;46.68;98751.06;4916954;28;103532;-60
2022/07/21 02:34:38;;;;;;;;;10.67;10.00;;;;;25.67;46.67;98753.53;4919641;28;102453;-60
2022/07/21 02:37:05;;;;;;;;;8.00;7.00;;;;;25.68;46.70;98752.41;4918214;28;104151;-60
2022/07/21 02:39:33;;;;;;;;;10.67;9.00;;;;;25.67;46.67;98754.34;4917445;28;102393;-60
2022/07/21 02:42:00;;;;;;;;;8.00;7.00;;;;;25.67;46.75;98748.81;4914166;28;102423;-60
2022/07/21 02:44:29;;;;;;;;;9.33;8.00;;;;;25.67;46.70;98743.28;4913054;28;102337;-60
2022/07/21 02:46:56;;;;;;;;;6.33;6.33;;;;;25.66;46.68;98736.13;4918245;28;104130;-60
2022/07/21 02:49:24;;;;;;;;;9.00;8.00;;;;;25.65;46.70;98731.69;4910589;28;102127;-60
2022/07/21 02:51:51;;;;;;;;;10.33;10.00;;;;;25.64;46.86;98731.97;4912361;28;102180;-60
2022/07/21 02:54:18;;;;;;;;;9.00;7.67;;;;;25.62;46.77;98735.03;4917057;28;102145;-60
2022/07/21 02:56:48;;;;;;;;;8.67;8.67;;;;;25.62;46.77;98737.00;4914943;28;104166;-60
2022/07/21 02:59:15;;;;;;;;;8.33;8.33;;;;;25.62;46.79;98735.03;4916801;28;102489;-60
2022/07/21 03:01:42;;;;;;;;;10.00;9.33;;;;;25.62;46.76;98735.03;4915593;28;102411;-61
2022/07/21 03:04:11;;;;;;;;;11.00;9.00;;;;;25.61;46.73;98725.09;4917801;28;102379;-61
2022/07/21 03:06:42;;;;;;;;;7.67;6.67;;;;;25.60;46.90;98728.97;4916002;28;108990;-60
2022/07/21 03:09:09;;;;;;;;;7.00;7.00;;;;;25.61;46.74;98733.41;4913207;28;102397;-60
2022/07/21 03:11:36;;;;;;;;;6.33;6.00;;;;;25.62;46.82;98729.50;4912220;28;102404;-61
2022/07/21 03:14:04;;;;;;;;;9.00;8.00;;;;;25.61;46.82;98722.31;4918249;28;102182;-60
2022/07/21 03:16:31;;;;;;;;;9.00;8.33;;;;;25.62;46.73;98735.03;4910710;28;104270;-60
2022/07/21 03:18:58;;;;;;;;;8.33;8.00;;;;;25.61;46.62;98741.72;4914582;28;102303;-60
2022/07/21 03:21:25;;;;;;;;;8.00;8.00;;;;;25.60;46.70;98739.22;4916884;28;102430;-60
2022/07/21 03:23:52;;;;;;;;;8.33;7.33;;;;;25.60;46.70;98737.28;4944714;28;104659;-60
2022/07/21 03:26:19;;;;;;;;;8.67;8.00;;;;;25.58;46.91;98739.50;4916337;28;104070;-61
2022/07/21 03:28:46;;;;;;;;;9.67;7.67;;;;;25.57;46.95;98740.66;4912735;28;102283;-61
2022/07/21 03:31:14;;;;;;;;;10.00;8.33;;;;;25.59;46.94;98741.16;4915944;28;102056;-60
2022/07/21 03:33:41;;;;;;;;;7.67;7.67;;;;;25.56;46.73;98733.47;4918209;28;102307;-60
2022/07/21 03:36:08;;;;;;;;;7.67;7.33;;;;;25.58;47.00;98733.13;4914456;28;108946;-60
2022/07/21 03:38:36;;;;;;;;;8.67;8.33;;;;;25.55;46.96;98730.97;4913889;28;102353;-60
2022/07/21 03:41:03;;;;;;;;;10.00;9.33;;;;;25.54;46.93;98738.47;4914951;28;102097;-60
2022/07/21 03:43:38;;;;;;;;;8.00;7.33;;;;;25.56;46.90;98741.78;4917090;28;102325;-60
2022/07/21 03:46:05;;;;;;;;;10.00;9.33;;;;;25.56;46.85;98747.31;4916052;28;104227;-60
2022/07/21 03:48:32;;;;;;;;;9.33;9.00;;;;;25.55;46.88;98745.66;4907638;28;102967;-60
2022/07/21 03:50:59;;;;;;;;;7.00;6.33;;;;;25.58;47.00;98742.28;4911514;28;102388;-60
2022/07/21 03:53:26;;;;;;;;;6.67;6.67;;;;;25.57;46.77;98743.44;4914418;28;102443;-60
2022/07/21 03:55:53;;;;;;;;;8.00;7.00;;;;;25.56;47.13;98741.78;4916675;28;104158;-61
2022/07/21 03:58:20;;;;;;;;;8.00;8.00;;;;;25.56;46.86;98735.41;4910817;28;102986;-60
2022/07/21 04:00:48;;;;;;;;;8.33;8.00;;;;;25.57;46.99;98740.66;4916998;28;109446;-60
2022/07/21 04:03:15;;;;;;;;;7.67;6.67;;;;;25.55;46.96;98739.28;4917796;28;102685;-61
2022/07/21 04:05:42;;;;;;;;;7.00;7.00;;;;;25.53;47.00;98739.53;4914646;28;104252;-60
2022/07/21 04:08:10;;;;;;;;;7.67;6.00;;;;;25.52;46.86;98740.69;4920305;28;102124;-60
2022/07/21 04:10:38;;;;;;;;;8.33;8.33;;;;;25.55;47.04;98750.34;4915266;28;104327;-60
2022/07/21 04:13:06;;;;;;;;;8.00;8.00;;;;;25.51;47.04;98752.88;4914167;28;102355;-60
2022/07/21 04:15:34;;;;;;;;;7.33;6.33;;;;;25.51;47.01;98755.63;4918109;28;104077;-60
2022/07/21 04:18:01;;;;;;;;;6.67;6.00;;;;;25.52;47.18;98757.28;4917213;28;102624;-60
2022/07/21 04:20:28;;;;;;;;;9.00;9.00;;;;;25.53;47.07;98761.69;4913865;28;102437;-60
2022/07/21 04:22:56;;;;;;;;;6.67;6.67;;;;;25.54;46.93;98759.78;4921142;28;102493;-60
2022/07/21 04:25:23;;;;;;;;;7.00;7.00;;;;;25.53;47.11;98753.38;4916970;28;103546;-61
2022/07/21 04:27:50;;;;;;;;;9.33;8.00;;;;;25.52;47.03;98753.69;4914538;28;102319;-60
2022/07/21 04:30:19;;;;;;;;;8.00;8.00;;;;;25.52;47.01;98756.47;4909268;28;102118;-60
2022/07/21 04:32:46;;;;;;;;;8.00;8.00;;;;;25.53;47.13;98756.16;4922957;28;102431;-60
2022/07/21 04:35:14;;;;;;;;;8.00;8.00;;;;;25.53;46.94;98758.91;4917890;28;104141;-60
2022/07/21 04:37:41;;;;;;;;;6.67;6.67;;;;;25.55;46.83;98758.66;4919150;28;102499;-60
2022/07/21 04:40:09;;;;;;;;;8.00;8.00;;;;;25.52;46.96;98751.75;4918405;28;110678;-60
2022/07/21 04:42:36;;;;;;;;;7.67;6.33;;;;;25.52;47.00;98759.22;4922138;28;102696;-60
2022/07/21 04:45:04;;;;;;;;;8.67;8.67;;;;;25.52;47.18;98756.47;4919642;28;104093;-61
2022/07/21 04:47:32;;;;;;;;;8.00;8.00;;;;;25.50;47.09;98751.22;4915920;28;103676;-60
2022/07/21 04:49:59;;;;;;;;;6.33;6.33;;;;;25.52;47.16;98751.75;4914228;28;102683;-60
2022/07/21 04:52:26;;;;;;;;;8.00;7.00;;;;;25.54;46.98;98760.59;4917295;28;103299;-60
2022/07/21 04:54:53;;;;;;;;;6.00;5.67;;;;;25.54;47.06;98755.06;4910425;28;104155;-60
2022/07/21 04:57:20;;;;;;;;;6.00;6.00;;;;;25.56;47.18;98760.31;4919709;28;101982;-59
2022/07/21 04:59:47;;;;;;;;;6.67;6.67;;;;;25.56;46.88;98752.84;4914569;28;102053;-60
2022/07/21 05:02:14;;;;;;;;;6.33;6.33;;;;;25.56;47.07;98768.63;4917498;28;102665;-60
2022/07/21 05:04:42;;;;;;;;;5.00;5.00;;;;;25.57;46.85;98765.59;4922809;28;104027;-60
2022/07/21 05:07:11;;;;;;;;;8.67;7.00;;;;;25.58;46.93;98756.13;4919867;28;102502;-60
2022/07/21 05:09:38;;;;;;;;;8.00;6.67;;;;;25.56;47.01;98760.31;4918985;28;103402;-60
2022/07/21 05:12:06;;;;;;;;;6.33;6.00;;;;;25.56;47.00;98763.09;4916823;28;102149;-60
2022/07/21 05:14:33;;;;;;;;;5.00;5.00;;;;;25.53;47.03;98770.00;4917804;28;104229;-60
2022/07/21 05:17:00;;;;;;;;;7.67;7.67;;;;;25.57;46.80;98768.34;4918911;28;102270;-60
2022/07/21 05:19:27;;;;;;;;;6.67;6.67;;;;;25.59;46.81;98771.63;4921062;28;103342;-60
2022/07/21 05:21:54;;;;;;;;;6.67;6.67;;;;;25.57;46.91;98764.75;4921761;28;102440;-60
2022/07/21 05:24:22;;;;;;;;;7.00;5.00;;;;;25.56;47.06;98755.63;4918231;28;104174;-60
2022/07/21 05:26:49;;;;;;;;;7.00;7.00;;;;;25.62;46.89;98767.47;4916880;28;102433;-60
2022/07/21 05:29:17;;;;;;;;;4.67;4.67;;;;;25.62;46.94;98762.72;4910999;28;102105;-60
2022/07/21 05:31:44;;;;;;;;;7.00;6.00;;;;;25.62;46.85;98757.19;4916991;28;102296;-60
2022/07/21 05:34:12;;;;;;;;;7.00;6.00;;;;;25.61;46.78;98761.09;4915990;28;104132;-61
2022/07/21 05:36:39;;;;;;;;;7.00;6.33;;;;;25.61;46.73;98763.88;4918576;28;102086;-60
2022/07/21 05:39:06;;;;;;;;;6.33;6.00;;;;;25.62;46.82;98768.25;4918184;28;102165;-60
2022/07/21 05:41:33;;;;;;;;;5.33;5.00;;;;;25.62;46.78;98771.03;4917880;28;103486;-60
2022/07/21 05:44:00;;;;;;;;;6.33;5.67;;;;;25.62;46.72;98768.25;4914046;28;104208;-60
2022/07/21 05:46:27;;;;;;;;;5.33;5.33;;;;;25.62;46.87;98764.69;4918060;28;102160;-60
2022/07/21 05:48:55;;;;;;;;;5.67;5.00;;;;;25.61;46.93;98766.63;4916947;28;102234;-60
2022/07/21 05:51:22;;;;;;;;;5.67;5.67;;;;;25.61;46.85;98765.81;4917145;28;102406;-60
2022/07/21 05:53:50;;;;;;;;;4.67;4.00;;;;;25.62;46.79;98759.16;4913446;28;105302;-60
2022/07/21 05:56:17;;;;;;;;;6.00;5.33;;;;;25.62;46.92;98768.25;4915909;28;102161;-60
2022/07/21 05:58:44;;;;;;;;;6.00;5.00;;;;;25.62;46.81;98771.03;4916174;28;102120;-59
2022/07/21 06:01:16;;;;;;;;;6.00;5.67;;;;;25.62;46.77;98779.34;4916404;28;102272;-60
2022/07/21 06:03:47;;;;;;;;;4.00;4.00;;;;;25.63;46.80;98781.00;4916089;28;108914;-60
2022/07/21 06:06:18;;;;;;;;;4.00;4.00;;;;;25.64;46.83;98782.66;4915913;28;102321;-60
2022/07/21 06:08:46;;;;;;;;;8.00;6.67;;;;;25.62;46.78;98784.88;4914958;28;102568;-60
2022/07/21 06:11:15;;;;;;;;;5.33;5.33;;;;;25.63;46.79;98789.31;4921974;28;102163;-60
2022/07/21 06:13:43;;;;;;;;;3.00;3.00;;;;;25.63;46.92;98783.75;4918782;28;108766;-60
2022/07/21 06:16:10;;;;;;;;;6.33;5.33;;;;;25.64;46.83;98776.28;4918406;28;102190;-60
2022/07/21 06:18:37;;;;;;;;;5.00;5.00;;;;;25.63;46.77;98786.53;4916365;28;104041;-60
2022/07/21 06:21:04;;;;;;;;;6.67;6.67;;;;;25.63;46.81;98788.47;4915300;28;102537;-61
2022/07/21 06:23:32;;;;;;;;;7.00;6.00;;;;;25.61;46.87;98788.78;4916298;28;104158;-60
2022/07/21 06:25:59;;;;;;;;;4.67;4.67;;;;;25.62;46.86;98790.41;4919313;28;102142;-61
2022/07/21 06:28:26;;;;;;;;;6.00;6.00;;;;;25.62;46.70;98790.41;4914468;28;102078;-60
2022/07/21 06:30:54;;;;;;;;;6.00;4.33;;;;;25.64;46.71;98803.97;4917739;28;103594;-60
2022/07/21 06:33:22;;;;;;;;;4.33;4.33;;;;;25.63;46.85;98797.63;4921434;28;105238;-60
2022/07/21 06:35:49;;;;;;;;;5.00;5.00;;;;;25.64;46.73;98796.50;4917976;28;102207;-60
2022/07/21 06:38:16;;;;;;;;;6.00;5.33;;;;;25.64;46.87;98793.72;4911503;28;102454;-60
2022/07/21 06:40:43;;;;;;;;;6.00;6.00;;;;;25.62;46.81;98793.19;4931442;28;102411;-60
2022/07/21 06:43:12;;;;;;;;;4.33;4.00;;;;;25.64;46.79;98801.22;4914412;28;109337;-60
2022/07/21 06:45:53;;;;;;;;;2.33;2.33;;;;;25.63;46.86;98803.16;4912977;28;102123;-60
2022/07/21 06:48:21;;;;;;;;;7.00;5.00;;;;;25.63;46.89;98803.16;4917249;28;103079;-60
2022/07/21 06:50:49;;;;;;;;;5.00;5.00;;;;;25.64;46.81;98802.03;4912184;28;102571;-60
2022/07/21 06:53:16;;;;;;;;;6.00;5.67;;;;;25.64;46.77;98799.28;4910496;28;104076;-61
2022/07/21 06:55:43;;;;;;;;;6.00;5.67;;;;;25.65;46.91;98809.25;4912527;28;102555;-60
2022/07/21 06:58:18;;;;;;;;;5.00;5.00;;;;;25.63;46.73;98811.47;4916766;28;102306;-60
2022/07/21 07:00:46;;;;;;;;;5.33;5.00;;;;;25.65;46.85;98805.63;4927721;28;108866;-60
2022/07/21 07:03:13;;;;;;;;;5.00;5.00;;;;;25.65;46.94;98812.00;4915941;28;104228;-60
2022/07/21 07:05:41;;;;;;;;;5.33;5.00;;;;;25.64;46.77;98793.72;4918375;28;102380;-60
2022/07/21 07:08:08;;;;;;;;;6.00;5.00;;;;;25.66;46.75;98804.53;4913089;28;102357;-60
2022/07/21 07:10:41;;;;;;;;;4.33;4.33;;;;;25.67;46.73;98806.16;4917358;28;102252;-60
2022/07/21 07:13:08;;;;;;;;;4.67;4.33;;;;;25.66;46.78;98815.59;4911804;28;104154;-60
2022/07/21 07:15:55;;;;;;;;;6.33;5.00;;;;;25.65;46.92;98800.94;4912499;28;105667;-60
2022/07/21 07:18:23;;;;;;;;;4.33;4.33;;;;;25.65;46.76;98812.00;4917521;28;102077;-60
2022/07/21 07:20:51;;;;;;;;;4.00;4.00;;;;;25.65;46.87;98800.94;4915051;28;102562;-60
2022/07/21 07:23:19;;;;;;;;;5.00;5.00;;;;;25.66;46.82;98797.03;4912776;28;104218;-60
2022/07/21 07:25:46;;;;;;;;;5.00;5.00;;;;;25.66;46.78;98797.03;4912067;28;102379;-60
2022/07/21 07:28:13;;;;;;;;;4.67;4.67;;;;;25.65;46.84;98797.34;4920645;28;102142;-60
2022/07/21 07:30:40;;;;;;;;;5.00;4.67;;;;;25.67;46.89;98804.22;4915002;28;102206;-60
2022/07/21 07:33:07;;;;;;;;;4.00;4.00;;;;;25.65;46.72;98800.94;4909260;28;104686;-60
2022/07/21 07:35:34;;;;;;;;;6.00;5.33;;;;;25.67;46.92;98803.38;4913136;28;102156;-60
2022/07/21 07:38:01;;;;;;;;;5.00;5.00;;;;;25.67;46.70;98804.22;4910723;28;102402;-60
2022/07/21 07:40:29;;;;;;;;;4.00;3.33;;;;;25.67;46.77;98806.16;4915655;28;102171;-60
2022/07/21 07:42:57;;;;;;;;;4.33;4.00;;;;;25.66;46.91;98799.81;4913637;28;104087;-60
2022/07/21 07:45:30;;;;;;;;;6.33;4.33;;;;;25.67;46.84;98803.38;4917339;28;104170;-60
2022/07/21 07:47:58;;;;;;;;;5.00;4.00;;;;;25.67;46.70;98803.38;4916273;28;102125;-60
2022/07/21 07:50:25;;;;;;;;;6.33;5.33;;;;;25.66;47.08;98794.28;4917024;28;102498;-60
2022/07/21 07:52:52;;;;;;;;;2.67;2.67;;;;;25.67;46.97;98806.97;4915204;28;104241;-60
2022/07/21 07:55:19;;;;;;;;;5.00;5.00;;;;;25.67;46.83;98798.69;4905732;28;102612;-60
2022/07/21 07:57:46;;;;;;;;;4.00;4.00;;;;;25.68;46.91;98805.88;4914574;28;102149;-60
2022/07/21 08:00:15;;;;;;;;;5.00;4.00;;;;;25.68;46.90;98808.63;4911284;28;102235;-60
2022/07/21 08:03:02;;;;;;;;;5.67;5.67;;;;;25.69;47.05;98793.69;4912707;28;110182;-60
2022/07/21 08:05:29;;;;;;;;;4.67;4.67;;;;;25.69;46.92;98803.94;4914483;28;102245;-60
2022/07/21 08:07:56;;;;;;;;;5.33;5.00;;;;;25.69;46.75;98796.44;4914148;28;102224;-61
2022/07/21 08:10:24;;;;;;;;;5.00;4.00;;;;;25.69;46.74;98793.69;4917214;28;102570;-60
2022/07/21 08:13:10;;;;;;;;;5.00;5.00;;;;;25.70;46.97;98787.03;4909396;28;104107;-60
2022/07/21 08:15:38;;;;;;;;;4.33;4.00;;;;;25.69;46.95;98785.38;4910152;28;109674;-60
2022/07/21 08:18:05;;;;;;;;;5.00;5.00;;;;;25.70;46.98;98789.78;4923859;28;102283;-60
2022/07/21 08:20:32;;;;;;;;;4.00;3.33;;;;;25.72;46.94;98792.25;4910833;28;102595;-60
2022/07/21 08:23:00;;;;;;;;;3.67;3.00;;;;;25.70;46.91;98784.25;4917053;28;104015;-60
2022/07/21 08:25:27;;;;;;;;;5.00;5.00;;;;;25.72;46.95;98783.94;4914108;28;102284;-60
2022/07/21 08:27:54;;;;;;;;;5.00;5.00;;;;;25.70;46.83;98789.78;4916102;28;102578;-60
2022/07/21 08:30:21;;;;;;;;;4.00;4.00;;;;;25.71;46.78;98791.41;4915180;28;102510;-60
2022/07/21 08:32:56;;;;;;;;;3.67;3.00;;;;;25.72;46.78;98795.03;4922301;28;104193;-60
2022/07/21 08:35:23;;;;;;;;;4.00;4.00;;;;;25.73;46.88;98796.69;4913911;28;102361;-60
2022/07/21 08:37:59;;;;;;;;;3.33;3.33;;;;;25.72;46.79;98782.00;4914252;28;102350;-60
2022/07/21 08:40:27;;;;;;;;;4.67;4.33;;;;;25.72;46.83;98779.22;4936421;28;102505;-60
2022/07/21 08:42:54;;;;;;;;;3.00;3.00;;;;;25.74;46.94;98788.09;4913139;28;104184;-60
2022/07/21 08:45:22;;;;;;;;;4.67;4.00;;;;;25.75;46.93;98783.38;4915011;28;102499;-60
2022/07/21 08:47:51;;;;;;;;;3.00;3.00;;;;;25.75;46.75;98784.19;4916712;28;102336;-60
2022/07/21 08:50:19;;;;;;;;;5.33;4.67;;;;;25.75;46.82;98784.19;4912894;28;102373;-60
2022/07/21 08:52:46;;;;;;;;;5.00;4.00;;;;;25.75;46.94;98767.56;4915759;28;104154;-60
2022/07/21 08:55:13;;;;;;;;;4.00;4.00;;;;;25.76;47.00;98774.75;4929729;28;102227;-60
2022/07/21 08:57:41;;;;;;;;;4.67;4.67;;;;;25.77;46.98;98770.88;4918461;28;102342;-60
2022/07/21 09:00:09;;;;;;;;;5.00;5.00;;;;;25.77;46.98;98768.09;4910741;28;107490;-60
2022/07/21 09:02:37;;;;;;;;;5.00;4.00;;;;;25.77;46.87;98764.50;4930306;28;104071;-60
2022/07/21 09:05:08;;;;;;;;;3.00;2.67;;;;;25.79;46.89;98764.22;4920222;28;102136;-60
2022/07/21 09:07:57;;;;;;;;;4.33;4.00;;;;;25.79;46.93;98767.81;4915775;28;102884;-60
2022/07/21 09:10:27;;;;;;;;;3.33;3.33;;;;;25.79;46.99;98772.53;4915795;28;102417;-60
2022/07/21 09:12:56;;;;;;;;;4.00;4.00;;;;;25.79;46.85;98766.97;4916932;28;103956;-60
2022/07/21 09:15:25;;;;;;;;;4.33;4.00;;;;;25.79;46.90;98769.75;4916002;28;102628;-60
2022/07/21 09:18:06;;;;;;;;;5.00;4.33;;;;;25.81;46.86;98771.09;4914788;28;102381;-60
2022/07/21 09:20:36;;;;;;;;;5.00;4.00;;;;;25.81;46.75;98776.63;4917219;28;103154;-60
2022/07/21 09:23:11;;;;;;;;;5.00;5.00;;;;;25.83;46.88;98776.34;4913136;28;104093;-60
2022/07/21 09:25:41;;;;;;;;;2.67;2.67;;;;;25.82;46.89;98775.50;4916489;28;102047;-60
2022/07/21 09:28:16;;;;;;;;;3.67;3.67;;;;;25.83;46.82;98765.25;4917035;28;103280;-60
2022/07/21 09:30:57;;;;;;;;;6.00;6.00;;;;;25.83;46.81;98771.63;4933735;28;102766;-61
2022/07/21 09:33:27;;;;;;;;;4.00;3.00;;;;;25.84;46.85;98772.47;4915162;28;108833;-60
2022/07/21 09:35:56;;;;;;;;;4.33;3.67;;;;;25.85;46.81;98766.59;4916800;28;102477;-60
2022/07/21 09:38:24;;;;;;;;;4.00;3.00;;;;;25.85;46.96;98763.03;4915386;28;105186;-61
2022/07/21 09:40:52;;;;;;;;;3.33;3.33;;;;;25.84;46.86;98767.75;4919334;28;103171;-60
2022/07/21 09:43:33;;;;;;;;;4.33;3.00;;;;;25.85;46.90;98771.34;4914074;28;104245;-60
2022/07/21 09:46:02;;;;;;;;;3.00;3.00;;;;;25.87;46.91;98761.59;4915042;28;102115;-60
2022/07/21 09:48:36;;;;;;;;;3.00;3.00;;;;;25.87;46.89;98763.53;4913448;28;102205;-60
2022/07/21 09:51:26;;;;;;;;;5.33;4.00;;;;;25.88;46.74;98749.41;4913689;28;102361;-60
2022/07/21 09:53:59;;;;;;;;;3.00;3.00;;;;;25.89;46.88;98764.09;4913114;28;108811;-60
2022/07/21 09:56:28;;;;;;;;;4.00;4.00;;;;;25.89;46.85;98759.38;4917371;28;102400;-60
2022/07/21 09:58:56;;;;;;;;;4.00;3.00;;;;;25.89;46.90;98751.06;4919668;28;102145;-61
2022/07/21 10:01:24;;;;;;;;;4.00;4.00;;;;;25.90;46.87;98741.59;4917773;28;102252;-60
2022/07/21 10:03:51;;;;;;;;;4.00;4.00;;;;;25.90;46.88;98747.16;4918847;28;104069;-60
2022/07/21 10:06:21;;;;;;;;;4.00;4.00;;;;;25.91;46.80;98747.97;4930683;28;104804;-60
2022/07/21 10:08:49;;;;;;;;;3.00;3.00;;;;;25.91;46.89;98742.44;4917174;28;102264;-60
2022/07/21 10:11:17;;;;;;;;;4.00;3.00;;;;;25.92;46.83;98746.84;4918722;28;102244;-60
2022/07/21 10:13:47;;;;;;;;;4.33;4.00;;;;;25.94;46.67;98747.38;4915087;28;108897;-60
2022/07/21 10:16:14;;;;;;;;;4.00;4.00;;;;;25.93;46.78;98751.28;4918659;28;102308;-60
2022/07/21 10:19:19;;;;;;;;;3.67;3.67;;;;;25.94;46.90;98744.59;4897433;28;102226;-60
2022/07/21 10:21:58;;;;;;;;;2.00;2.00;;;;;25.95;46.89;98737.94;4911460;28;102231;-60
2022/07/21 10:24:27;;;;;;;;;4.33;4.00;;;;;25.96;46.85;98742.38;4880122;28;109082;-60
2022/07/21 10:27:05;;;;;;;;;4.33;4.33;;;;;25.96;46.86;98745.13;4913126;28;102042;-60
2022/07/21 10:29:47;;;;;;;;;3.00;3.00;;;;;25.97;46.84;98738.47;4914837;28;102018;-60
2022/07/21 10:32:19;;;;;;;;;3.00;2.00;;;;;25.96;46.72;98745.97;4914209;28;102343;-60
2022/07/21 10:34:48;;;;;;;;;4.67;4.67;;;;;25.97;46.76;98746.78;4917646;28;108986;-60
2022/07/21 10:37:41;;;;;;;;;3.33;3.00;;;;;25.99;46.85;98730.69;4914180;28;102112;-60
2022/07/21 10:40:20;;;;;;;;;2.00;2.00;;;;;25.99;46.64;98739.00;4911985;28;103309;-60
2022/07/21 10:43:14;;;;;;;;;2.67;2.67;;;;;25.99;46.72;98733.44;4915596;28;102950;-60
2022/07/21 10:45:45;;;;;;;;;4.00;3.00;;;;;25.99;46.83;98739.81;4884362;28;109902;-60
2022/07/21 10:48:37;;;;;;;;;3.00;3.00;;;;;25.99;46.85;98741.75;4914496;28;102610;-60
2022/07/21 10:51:06;;;;;;;;;3.00;3.00;;;;;26.00;46.81;98738.69;4913168;28;105068;-60
2022/07/21 10:53:33;;;;;;;;;3.00;2.33;;;;;26.02;46.83;98741.19;4919281;28;103249;-60
2022/07/21 10:56:00;;;;;;;;;3.00;3.00;;;;;26.01;46.89;98742.31;4904196;28;104104;-59
2022/07/21 10:58:36;;;;;;;;;4.00;4.00;;;;;26.02;46.81;98732.88;4918020;28;102544;-60
2022/07/21 11:01:04;;;;;;;;;3.00;3.00;;;;;26.03;46.83;98728.94;4919841;28;102315;-60
2022/07/21 11:03:39;;;;;;;;;3.00;3.00;;;;;26.04;46.84;98731.44;4917763;28;102603;-60
2022/07/21 11:06:09;;;;;;;;;2.67;2.67;;;;;26.05;46.71;98729.50;4912967;28;104096;-60
2022/07/21 11:08:37;;;;;;;;;3.00;3.00;;;;;26.05;46.72;98744.19;4915119;28;102011;-60
2022/07/21 11:11:11;;;;;;;;;3.67;3.00;;;;;26.06;46.83;98739.47;4916436;28;103907;-60
2022/07/21 11:14:18;;;;;;;;;3.33;3.00;;;;;26.06;46.88;98734.75;4911665;28;102048;-60
2022/07/21 11:16:56;;;;;;;;;3.00;3.00;;;;;26.06;46.82;98733.91;4912856;28;108810;-60
2022/07/21 11:19:48;;;;;;;;;5.00;3.00;;;;;26.06;46.73;98739.47;4910474;28;102721;-60
2022/07/21 11:22:19;;;;;;;;;4.67;2.00;;;;;26.07;46.77;98736.38;4917055;28;102500;-60
2022/07/21 11:25:06;;;;;;;;;3.00;3.00;;;;;26.08;46.89;98728.88;4909090;28;102176;-60
2022/07/21 11:27:35;;;;;;;;;3.33;3.33;;;;;26.09;46.79;98733.31;4909679;28;109106;-60
2022/07/21 11:30:04;;;;;;;;;3.00;3.00;;;;;26.09;46.84;98727.78;4910697;28;102352;-60
2022/07/21 11:32:31;;;;;;;;;3.00;3.00;;;;;26.09;46.84;98723.06;4915941;28;102215;-60
2022/07/21 11:35:03;;;;;;;;;2.33;2.00;;;;;26.10;46.88;98727.47;4910758;28;102522;-60
2022/07/21 11:37:30;;;;;;;;;4.33;3.33;;;;;26.13;46.81;98723.28;4914693;28;103975;-60